Archiv-/Tagesdaten

--Timestamp---	Temp	Chill	HIndex	Humid	Dewpt	 Wind 	HiWind	WindDir	Rain 	Barom	Solar	 ET  	 UV 
--------------	----	-----	------	-----	-----	------	------	-------	-----	-----	-----	-----	----
20101015 00:00	6.1	6.1	6.1	88	4.2	0	0	-100000	0.0	1014.6	0	0.000	0.0
20101015 00:05	6.1	6.1	6.1	88	4.2	0	0	-100000	0.0	1014.6	0	0.000	0.0
20101015 00:10	6.1	6.1	6.1	88	4.3	2	5	248	0.0	1014.6	0	0.000	0.0
20101015 00:15	6.2	6.2	6.2	87	4.2	0	3	248	0.0	1014.6	0	0.000	0.0
20101015 00:20	6.2	6.2	6.2	87	4.2	2	5	248	0.0	1014.6	0	0.000	0.0
20101015 00:25	6.2	6.2	6.2	87	4.2	0	0	-100000	0.0	1014.6	0	0.000	0.0
20101015 00:30	6.2	6.2	6.2	88	4.3	0	0	-100000	0.0	1014.6	0	0.000	0.0
20101015 00:35	6.2	6.2	6.2	88	4.3	0	0	-100000	0.0	1014.6	0	0.000	0.0
20101015 00:40	6.2	6.2	6.2	88	4.3	0	0	-100000	0.0	1014.6	0	0.000	0.0
20101015 00:45	6.2	6.2	6.2	88	4.3	0	0	-100000	0.0	1014.6	0	0.000	0.0
20101015 00:50	6.2	6.2	6.2	88	4.3	0	0	-100000	0.0	1014.6	0	0.000	0.0
20101015 00:55	6.2	6.2	6.2	88	4.3	0	0	-100000	0.0	1014.5	0	0.000	0.0
20101015 01:00	6.2	6.2	6.2	88	4.3	0	0	-100000	0.0	1014.5	0	0.000	0.0
20101015 01:05	6.2	6.2	6.2	88	4.3	0	0	-100000	0.0	1014.4	0	0.000	0.0
20101015 01:10	6.2	6.2	6.2	88	4.3	0	0	-100000	0.0	1014.3	0	0.000	0.0
20101015 01:15	6.2	6.2	6.2	88	4.3	0	0	-100000	0.0	1014.2	0	0.000	0.0
20101015 01:20	6.2	6.2	6.2	88	4.3	0	0	-100000	0.0	1014.2	0	0.000	0.0
20101015 01:25	6.2	6.2	6.2	88	4.3	0	0	-100000	0.0	1014.2	0	0.000	0.0
20101015 01:30	6.2	6.2	6.2	88	4.3	0	0	-100000	0.0	1014.2	0	0.000	0.0
20101015 01:35	6.2	6.2	6.2	88	4.3	0	0	-100000	0.0	1014.2	0	0.000	0.0
20101015 01:40	6.1	6.1	6.1	88	4.3	0	0	-100000	0.0	1014.2	0	0.000	0.0
20101015 01:45	6.1	6.1	6.1	88	4.3	0	0	-100000	0.0	1014.1	0	0.000	0.0
20101015 01:50	6.1	6.1	6.1	88	4.3	0	0	-100000	0.0	1014.1	0	0.000	0.0
20101015 01:55	6.1	6.1	6.1	88	4.3	0	0	-100000	0.0	1014.0	0	0.000	0.0
20101015 02:00	6.1	6.1	6.1	88	4.3	0	2	248	0.0	1013.9	0	0.000	0.0
20101015 02:05	6.1	6.1	6.1	88	4.3	0	0	-100000	0.0	1013.9	0	0.000	0.0
20101015 02:10	6.1	6.1	6.1	88	4.3	0	0	-100000	0.0	1014.0	0	0.000	0.0
20101015 02:15	6.1	6.1	6.1	88	4.3	0	2	248	0.0	1014.0	0	0.000	0.0
20101015 02:20	6.2	6.2	6.2	88	4.3	0	2	248	0.0	1013.9	0	0.000	0.0
20101015 02:25	6.2	6.2	6.2	87	4.2	0	5	248	0.0	1014.0	0	0.000	0.0
20101015 02:30	6.2	6.2	6.2	87	4.2	2	5	248	0.0	1014.0	0	0.000	0.0
20101015 02:35	6.3	6.3	6.3	86	4.1	2	6	248	0.0	1014.0	0	0.000	0.0
20101015 02:40	6.3	6.3	6.3	86	4.2	0	2	248	0.0	1013.9	0	0.000	0.0
20101015 02:45	6.4	6.4	6.4	86	4.2	2	5	248	0.0	1013.9	0	0.000	0.0
20101015 02:50	6.4	6.4	6.4	86	4.3	2	5	248	0.0	1013.9	0	0.000	0.0
20101015 02:55	6.4	6.4	6.4	85	4.1	3	6	248	0.0	1013.9	0	0.000	0.0
20101015 03:00	6.4	6.4	6.4	85	4.1	2	5	248	0.0	1013.9	0	0.000	0.0
20101015 03:05	6.4	6.4	6.4	85	4.1	2	5	248	0.0	1013.7	0	0.000	0.0
20101015 03:10	6.4	6.4	6.4	85	4.1	3	6	248	0.0	1013.7	0	0.000	0.0
20101015 03:15	6.4	6.4	6.4	86	4.2	3	6	248	0.0	1013.6	0	0.000	0.0
20101015 03:20	6.4	6.4	6.4	86	4.2	0	3	248	0.0	1013.7	0	0.000	0.0
20101015 03:25	6.4	6.4	6.4	86	4.2	0	2	248	0.0	1013.5	0	0.000	0.0
20101015 03:30	6.4	6.4	6.4	86	4.2	0	5	248	0.0	1013.4	0	0.000	0.0
20101015 03:35	6.3	6.3	6.3	86	4.2	0	0	-100000	0.0	1013.4	0	0.000	0.0
20101015 03:40	6.3	6.3	6.3	86	4.2	3	6	248	0.0	1013.5	0	0.000	0.0
20101015 03:45	6.3	6.3	6.3	86	4.2	2	5	248	0.0	1013.5	0	0.000	0.0
20101015 03:50	6.3	6.3	6.3	86	4.2	0	3	248	0.0	1013.4	0	0.000	0.0
20101015 03:55	6.3	6.3	6.3	87	4.3	2	5	248	0.0	1013.5	0	0.000	0.0
20101015 04:00	6.3	6.3	6.3	87	4.3	0	5	248	0.0	1013.5	0	0.000	0.0
20101015 04:05	6.3	6.3	6.3	87	4.3	0	6	248	0.0	1013.4	0	0.000	0.0
20101015 04:10	6.3	6.3	6.3	88	4.4	0	2	248	0.0	1013.3	0	0.000	0.0
20101015 04:15	6.2	6.2	6.2	88	4.4	0	0	-100000	0.0	1013.3	0	0.000	0.0
20101015 04:20	6.2	6.2	6.2	88	4.4	0	0	-100000	0.0	1013.2	0	0.000	0.0
20101015 04:25	6.2	6.2	6.2	89	4.5	0	0	-100000	0.0	1013.2	0	0.000	0.0
20101015 04:30	6.1	6.1	6.1	89	4.4	0	0	-100000	0.0	1013.2	0	0.000	0.0
20101015 04:35	6.1	6.1	6.1	89	4.4	0	0	-100000	0.0	1013.2	0	0.000	0.0
20101015 04:40	6.0	6.0	6.0	89	4.3	0	0	-100000	0.0	1013.2	0	0.000	0.0
20101015 04:45	5.9	5.9	5.9	89	4.3	0	0	-100000	0.0	1013.2	0	0.000	0.0
20101015 04:50	5.9	5.9	5.9	89	4.2	0	0	-100000	0.0	1013.2	0	0.000	0.0
20101015 04:55	5.9	5.9	5.9	89	4.2	0	0	-100000	0.0	1013.1	0	0.000	0.0
20101015 05:00	5.8	5.8	5.8	90	4.3	0	0	-100000	0.0	1013.1	0	0.000	0.0
20101015 05:05	5.8	5.8	5.8	90	4.3	0	2	248	0.0	1013.3	0	0.000	0.0
20101015 05:10	5.8	5.8	5.8	90	4.3	0	0	-100000	0.0	1013.2	0	0.000	0.0
20101015 05:15	5.8	5.8	5.8	90	4.3	0	2	248	0.0	1013.2	0	0.000	0.0
20101015 05:20	5.8	5.8	5.8	90	4.3	0	2	248	0.0	1013.1	0	0.000	0.0
20101015 05:25	5.7	5.7	5.7	90	4.2	0	3	248	0.0	1013.2	0	0.000	0.0
20101015 05:30	5.7	5.7	5.7	90	4.2	0	3	248	0.0	1013.3	0	0.000	0.0
20101015 05:35	5.7	5.7	5.7	90	4.2	0	2	248	0.0	1013.3	0	0.000	0.0
20101015 05:40	5.7	5.7	5.7	90	4.2	0	2	248	0.0	1013.3	0	0.000	0.0
20101015 05:45	5.7	5.7	5.7	91	4.3	0	0	-100000	0.0	1013.3	0	0.000	0.0
20101015 05:50	5.6	5.6	5.6	91	4.3	0	2	248	0.0	1013.2	0	0.000	0.0
20101015 05:55	5.6	5.6	5.6	91	4.3	0	0	-100000	0.0	1013.2	0	0.000	0.0
20101015 06:00	5.6	5.6	5.6	91	4.2	0	0	-100000	0.0	1013.2	0	0.000	0.0
20101015 06:05	5.6	5.6	5.6	91	4.2	0	0	-100000	0.0	1013.3	0	0.000	0.0
20101015 06:10	5.6	5.6	5.6	91	4.2	0	3	248	0.0	1013.3	0	0.000	0.0
20101015 06:15	5.6	5.6	5.6	91	4.2	2	5	248	0.0	1013.4	0	0.000	0.0
20101015 06:20	5.6	5.6	5.6	91	4.2	2	6	248	0.0	1013.4	0	0.000	0.0
20101015 06:25	5.6	5.6	5.6	91	4.2	3	5	248	0.0	1013.4	0	0.000	0.0
20101015 06:30	5.6	5.6	5.6	91	4.2	2	5	248	0.0	1013.4	0	0.000	0.0
20101015 06:35	5.5	5.5	5.5	91	4.1	0	5	248	0.0	1013.4	0	0.000	0.0
20101015 06:40	5.4	5.4	5.4	91	4.1	0	5	248	0.0	1013.4	0	0.000	0.0
20101015 06:45	5.4	5.4	5.4	91	4.0	0	5	248	0.0	1013.4	0	0.000	0.0
20101015 06:50	5.3	5.3	5.3	91	4.0	0	5	248	0.0	1013.4	0	0.000	0.0
20101015 06:55	5.3	5.3	5.3	91	4.0	2	5	248	0.0	1013.5	0	0.000	0.0
20101015 07:00	5.3	5.3	5.3	91	3.9	2	6	248	0.0	1013.4	0	0.000	0.0
20101015 07:05	5.3	5.3	5.3	91	3.9	3	6	248	0.0	1013.5	0	0.000	0.0
20101015 07:10	5.2	5.2	5.2	91	3.9	2	5	248	0.0	1013.6	0	0.000	0.0
20101015 07:15	5.2	5.2	5.2	91	3.8	0	0	-100000	0.0	1013.5	0	0.000	0.0
20101015 07:20	5.2	5.2	5.2	91	3.8	3	6	248	0.0	1013.4	0	0.000	0.0
20101015 07:25	5.1	5.1	5.1	91	3.7	3	5	248	0.0	1013.4	0	0.000	0.0
20101015 07:30	5.1	5.1	5.1	91	3.7	3	6	248	0.0	1013.5	0	0.000	0.0
20101015 07:35	4.9	4.9	4.9	91	3.6	5	6	248	0.0	1013.5	0	0.000	0.0
20101015 07:40	4.8	4.8	4.8	91	3.5	3	6	248	0.0	1013.5	0	0.000	0.0
20101015 07:45	4.8	4.8	4.8	91	3.5	3	6	315	0.0	1013.6	0	0.000	0.0
20101015 07:50	4.8	4.8	4.8	92	3.6	3	6	315	0.0	1013.7	0	0.000	0.0
20101015 07:55	4.8	4.8	4.8	92	3.6	5	6	315	0.0	1013.7	2	0.000	0.0
20101015 08:00	4.8	4.8	4.8	92	3.6	2	5	315	0.0	1013.8	5	0.000	0.0
20101015 08:05	4.8	4.8	4.8	92	3.6	3	6	315	0.0	1013.8	7	0.000	0.0
20101015 08:10	4.8	4.8	4.8	92	3.6	0	3	315	0.0	1013.9	8	0.000	0.0
20101015 08:15	4.8	4.8	4.8	92	3.6	0	2	315	0.0	1013.8	11	0.000	0.0
20101015 08:20	4.8	4.8	4.8	92	3.6	0	3	315	0.0	1013.8	13	0.000	0.0
20101015 08:25	4.8	4.8	4.8	92	3.6	2	5	315	0.0	1013.8	16	0.000	0.0
20101015 08:30	4.8	4.8	4.8	92	3.6	2	6	315	0.0	1013.9	18	0.000	0.0
20101015 08:35	4.8	4.8	4.8	92	3.6	0	2	315	0.0	1013.9	20	0.000	0.0
20101015 08:40	4.9	4.9	4.9	92	3.7	0	2	315	0.0	1013.9	23	0.000	0.0
20101015 08:45	4.9	4.9	4.9	92	3.8	0	0	-100000	0.0	1013.9	26	0.000	0.0
20101015 08:50	5.1	5.1	5.1	92	3.9	3	6	315	0.0	1013.9	32	0.000	0.0
20101015 08:55	5.1	5.1	5.1	92	3.9	2	6	315	0.0	1013.9	32	0.000	0.0
20101015 09:00	5.1	5.1	5.1	92	3.9	3	6	315	0.0	1014.0	32	0.000	0.0
20101015 09:05	5.1	5.1	5.1	92	3.9	3	6	315	0.0	1014.0	31	0.000	0.0
20101015 09:10	5.1	5.1	5.1	92	3.9	2	6	315	0.0	1014.0	32	0.000	0.0
20101015 09:15	5.1	5.1	5.1	92	3.9	2	5	338	0.0	1014.0	35	0.000	0.0
20101015 09:20	5.2	5.2	5.2	92	4.0	3	6	338	0.0	1014.1	36	0.000	0.0
20101015 09:25	5.1	5.1	5.1	92	3.9	0	3	315	0.0	1014.1	40	0.000	0.0
20101015 09:30	5.1	5.1	5.1	92	3.9	0	6	315	0.0	1014.1	43	0.000	0.0
20101015 09:35	5.2	5.2	5.2	92	4.0	0	5	315	0.0	1014.1	47	0.000	0.0
20101015 09:40	5.2	5.2	5.2	92	4.0	0	3	315	0.0	1014.1	48	0.000	0.0
20101015 09:45	5.2	5.2	5.2	92	4.0	3	6	315	0.0	1014.2	48	0.000	0.0
20101015 09:50	5.2	5.2	5.2	92	4.0	5	8	315	0.0	1014.2	51	0.000	0.0
20101015 09:55	5.2	5.2	5.2	92	4.0	2	6	292	0.0	1014.2	47	0.000	0.0
20101015 10:00	5.3	5.3	5.3	92	4.1	0	2	292	0.0	1014.2	46	0.025	0.0
20101015 10:05	5.3	5.3	5.3	92	4.1	2	5	292	0.0	1014.2	46	0.000	0.0
20101015 10:10	5.2	5.2	5.2	92	4.0	3	10	22	0.0	1014.3	45	0.000	0.0
20101015 10:15	5.2	5.2	5.2	92	4.0	2	5	338	0.0	1014.3	46	0.000	0.0
20101015 10:20	5.2	5.2	5.2	92	4.0	2	5	0	0.0	1014.2	51	0.000	0.0
20101015 10:25	5.2	5.2	5.2	92	4.0	2	5	338	0.0	1014.2	58	0.000	0.0
20101015 10:30	5.1	5.1	5.1	92	3.9	2	6	338	0.0	1014.2	57	0.000	0.0
20101015 10:35	5.1	5.1	5.1	92	3.9	0	2	338	0.0	1014.2	56	0.000	0.0
20101015 10:40	5.1	5.1	5.1	92	3.9	2	6	338	0.0	1014.2	57	0.000	0.0
20101015 10:45	5.1	5.1	5.1	92	3.9	3	6	338	0.0	1014.2	67	0.000	0.0
20101015 10:50	5.1	5.1	5.1	92	3.9	2	6	338	0.0	1014.2	69	0.000	0.1
20101015 10:55	5.1	5.1	5.1	92	3.9	2	8	338	0.0	1014.2	71	0.000	0.4
20101015 11:00	5.1	5.1	5.1	92	3.9	2	5	315	0.0	1014.2	70	0.025	0.5
20101015 11:05	5.1	5.1	5.1	92	3.9	3	6	315	0.0	1014.2	67	0.000	0.3
20101015 11:10	5.1	5.1	5.1	92	3.9	3	6	315	0.0	1014.2	69	0.000	0.5
20101015 11:15	5.2	5.2	5.2	92	4.0	2	5	315	0.0	1014.2	69	0.000	0.5
20101015 11:20	5.2	5.2	5.2	92	4.0	2	6	315	0.0	1014.2	88	0.000	0.6
20101015 11:25	5.3	5.3	5.3	92	4.1	3	6	315	0.0	1014.2	96	0.000	0.7
20101015 11:30	5.3	5.3	5.3	92	4.1	2	6	315	0.0	1014.1	109	0.000	0.8
20101015 11:35	5.3	5.3	5.3	92	4.1	3	6	315	0.0	1014.0	111	0.000	0.8
20101015 11:40	5.4	5.4	5.4	92	4.2	3	6	315	0.0	1014.0	97	0.000	0.7
20101015 11:45	5.4	5.4	5.4	92	4.2	2	6	315	0.0	1014.0	89	0.000	0.7
20101015 11:50	5.5	5.5	5.5	92	4.3	5	8	315	0.0	1014.0	84	0.000	0.7
20101015 11:55	5.6	5.6	5.6	91	4.2	3	8	315	0.0	1014.0	93	0.000	0.7
20101015 12:00	5.7	5.7	5.7	91	4.3	5	6	315	0.0	1014.0	92	0.025	0.7
20101015 12:05	5.7	5.7	5.7	91	4.4	3	8	315	0.0	1014.0	71	0.000	0.5
20101015 12:10	5.8	5.8	5.8	90	4.3	5	8	315	0.0	1014.0	84	0.000	0.7
20101015 12:15	5.8	5.8	5.8	90	4.3	3	8	315	0.0	1013.9	98	0.000	0.8
20101015 12:20	5.9	5.9	5.9	90	4.4	3	6	315	0.0	1013.8	124	0.000	1.0
20101015 12:25	5.9	5.9	5.9	89	4.3	2	6	315	0.0	1013.7	116	0.000	0.9
20101015 12:30	6.1	6.1	6.1	89	4.4	2	6	315	0.0	1013.7	139	0.000	1.1
20101015 12:35	6.2	6.2	6.2	88	4.4	2	6	315	0.0	1013.7	164	0.000	1.3
20101015 12:40	6.3	6.3	6.3	88	4.5	2	6	315	0.0	1013.7	134	0.000	1.1
20101015 12:45	6.5	6.5	6.5	87	4.5	3	8	315	0.0	1013.7	118	0.000	1.0
20101015 12:50	6.6	6.6	6.6	86	4.4	2	6	315	0.0	1013.6	117	0.000	1.0
20101015 12:55	6.6	6.6	6.6	86	4.4	3	8	315	0.0	1013.6	131	0.000	1.2
20101015 13:00	6.7	6.7	6.7	85	4.3	2	6	315	0.0	1013.5	122	0.051	1.0
20101015 13:05	6.7	6.7	6.7	85	4.3	3	8	315	0.0	1013.5	128	0.000	1.1
20101015 13:10	6.7	6.7	6.7	85	4.4	2	6	315	0.0	1013.4	116	0.000	1.0
20101015 13:15	6.8	6.8	6.8	85	4.5	0	3	315	0.0	1013.4	106	0.000	0.9
20101015 13:20	6.9	6.9	6.9	85	4.5	3	8	315	0.0	1013.3	107	0.000	0.9
20101015 13:25	6.9	6.9	6.9	85	4.6	3	8	315	0.0	1013.2	116	0.000	1.0
20101015 13:30	6.9	6.9	6.9	84	4.4	5	6	315	0.0	1013.1	125	0.000	1.1
20101015 13:35	7.0	7.0	7.0	84	4.5	2	5	315	0.0	1013.0	115	0.000	1.0
20101015 13:40	7.1	7.1	7.1	84	4.5	2	5	315	0.0	1013.0	116	0.000	1.0
20101015 13:45	7.1	7.1	7.1	83	4.4	3	8	315	0.0	1013.0	143	0.000	1.2
20101015 13:50	7.1	7.1	7.1	83	4.4	3	6	338	0.0	1012.9	155	0.000	1.3
20101015 13:55	7.2	7.2	7.2	83	4.5	3	6	338	0.0	1012.8	160	0.000	1.3
20101015 14:00	7.2	7.2	7.2	83	4.5	3	8	0	0.0	1012.8	143	0.051	1.1
20101015 14:05	7.3	7.3	7.3	83	4.6	2	8	338	0.0	1012.7	145	0.000	1.1
20101015 14:10	7.3	7.3	7.3	83	4.6	3	8	338	0.0	1012.7	146	0.000	1.1
20101015 14:15	7.4	7.4	7.4	82	4.5	3	8	338	0.0	1012.7	136	0.000	1.1
20101015 14:20	7.4	7.4	7.4	82	4.6	2	5	338	0.0	1012.6	131	0.000	1.0
20101015 14:25	7.4	7.4	7.4	82	4.6	2	5	338	0.0	1012.6	140	0.000	1.1
20101015 14:30	7.5	7.5	7.5	82	4.6	0	3	338	0.0	1012.5	142	0.000	1.0
20101015 14:35	7.5	7.5	7.5	82	4.6	0	5	338	0.0	1012.3	140	0.000	1.0
20101015 14:40	7.6	7.6	7.6	81	4.5	2	5	338	0.0	1012.4	136	0.000	0.9
20101015 14:45	7.6	7.6	7.6	82	4.7	0	3	338	0.0	1012.3	126	0.000	0.9
20101015 14:50	7.7	7.7	7.7	81	4.6	0	5	338	0.0	1012.3	111	0.000	0.8
20101015 14:55	7.6	7.6	7.6	80	4.4	2	5	338	0.0	1012.3	95	0.000	0.7
20101015 15:00	7.6	7.6	7.6	80	4.4	0	3	338	0.0	1012.2	85	0.051	0.6
20101015 15:05	7.6	7.6	7.6	80	4.4	0	3	338	0.0	1012.3	83	0.000	0.6
20101015 15:10	7.7	7.7	7.7	80	4.4	2	5	338	0.0	1012.3	74	0.000	0.5
20101015 15:15	7.6	7.6	7.6	80	4.4	2	6	338	0.0	1012.3	67	0.000	0.3
20101015 15:20	7.6	7.6	7.6	80	4.3	3	6	338	0.0	1012.3	63	0.000	0.0
20101015 15:25	7.6	7.6	7.6	80	4.3	2	6	338	0.0	1012.3	60	0.000	0.0
20101015 15:30	7.5	7.5	7.5	81	4.5	0	5	338	0.0	1012.3	57	0.000	0.0
20101015 15:35	7.4	7.4	7.4	81	4.4	2	5	338	0.0	1012.3	54	0.000	0.0
20101015 15:40	7.4	7.4	7.4	81	4.4	0	2	338	0.0	1012.2	54	0.000	0.0
20101015 15:45	7.4	7.4	7.4	81	4.4	2	6	338	0.0	1012.2	53	0.000	0.0
20101015 15:50	7.4	7.4	7.4	81	4.3	2	5	338	0.0	1012.2	52	0.000	0.0
20101015 15:55	7.4	7.4	7.4	81	4.3	2	6	338	0.0	1012.2	44	0.000	0.0
20101015 16:00	7.4	7.4	7.4	81	4.3	0	5	338	0.0	1012.2	43	0.025	0.0
20101015 16:05	7.4	7.4	7.4	81	4.3	0	2	338	0.0	1012.1	41	0.000	0.0
20101015 16:10	7.4	7.4	7.4	80	4.2	0	2	338	0.0	1012.1	40	0.000	0.0
20101015 16:15	7.3	7.3	7.3	80	4.1	2	3	338	0.0	1012.2	35	0.000	0.0
20101015 16:20	7.3	7.3	7.3	80	4.1	3	6	338	0.0	1012.1	31	0.000	0.0
20101015 16:25	7.3	7.3	7.3	80	4.1	3	6	338	0.0	1012.1	30	0.000	0.0
20101015 16:30	7.2	7.2	7.2	80	4.0	2	5	338	0.0	1012.0	28	0.000	0.0
20101015 16:35	7.2	7.2	7.2	81	4.2	0	5	338	0.0	1012.1	26	0.000	0.0
20101015 16:40	7.2	7.2	7.2	81	4.2	0	5	338	0.0	1012.0	24	0.000	0.0
20101015 16:45	7.2	7.2	7.2	81	4.2	2	5	338	0.0	1011.9	22	0.000	0.0
20101015 16:50	7.2	7.2	7.2	81	4.1	3	5	338	0.0	1011.9	24	0.000	0.0
20101015 16:55	7.2	7.2	7.2	80	3.9	0	3	338	0.0	1011.9	25	0.000	0.0
20101015 17:00	7.2	7.2	7.2	80	3.9	0	0	-100000	0.0	1011.9	23	0.025	0.0
20101015 17:05	7.2	-100000.0	7.2	80	3.9	-100000	0	-100000	0.0	1012.0	21	0.000	0.0
20101015 17:10	7.1	7.1	7.1	80	3.9	3	3	338	0.0	1012.0	21	0.000	0.0
20101015 17:15	7.1	7.1	7.1	80	3.9	0	0	-100000	0.0	1012.0	20	0.000	0.0
20101015 17:20	7.1	7.1	7.1	80	3.8	2	3	338	0.0	1012.0	18	0.000	0.0
20101015 17:25	7.1	7.1	7.1	80	3.8	0	0	-100000	0.0	1012.0	17	0.000	0.0
20101015 17:30	7.1	7.1	7.1	80	3.8	3	5	338	0.0	1011.9	15	0.000	0.0
20101015 17:35	7.1	7.1	7.1	81	4.0	0	2	338	0.0	1012.0	13	0.000	0.0
20101015 17:40	7.1	7.1	7.1	81	4.0	2	5	338	0.0	1012.0	12	0.000	0.0
20101015 17:45	7.0	7.0	7.0	81	4.0	3	5	338	0.0	1012.0	9	0.000	0.0
20101015 17:50	7.0	7.0	7.0	81	4.0	0	3	338	0.0	1011.9	7	0.000	0.0
20101015 17:55	6.9	6.9	6.9	82	4.1	2	5	338	0.0	1011.9	6	0.000	0.0
20101015 18:00	6.9	6.9	6.9	83	4.3	0	3	338	0.0	1011.8	3	0.000	0.0
20101015 18:05	6.9	6.9	6.9	83	4.3	2	6	338	0.0	1011.8	0	0.000	0.0
20101015 18:10	6.9	6.9	6.9	83	4.2	2	5	338	0.0	1011.8	0	0.000	0.0
20101015 18:15	6.8	6.8	6.8	83	4.1	0	3	338	0.0	1011.9	0	0.000	0.0
20101015 18:20	6.8	6.8	6.8	83	4.1	2	5	338	0.0	1011.9	0	0.000	0.0
20101015 18:25	6.8	6.8	6.8	83	4.1	2	3	338	0.0	1011.9	0	0.000	0.0
20101015 18:30	6.7	6.7	6.7	82	3.9	0	3	338	0.0	1012.0	0	0.000	0.0
20101015 18:35	6.7	6.7	6.7	83	4.0	2	3	338	0.0	1012.0	0	0.000	0.0
20101015 18:40	6.7	6.7	6.7	83	4.0	2	2	338	0.0	1012.0	0	0.000	0.0
20101015 18:45	6.7	6.7	6.7	83	4.0	2	5	338	0.0	1012.0	0	0.000	0.0
20101015 18:50	6.7	6.7	6.7	83	4.0	0	2	338	0.0	1012.0	0	0.000	0.0
20101015 18:55	6.7	6.7	6.7	83	4.0	0	2	338	0.0	1012.0	0	0.000	0.0
20101015 19:00	6.7	6.7	6.7	83	4.0	0	2	338	0.0	1012.0	0	0.000	0.0
20101015 19:05	6.6	6.6	6.6	83	3.9	0	2	338	0.0	1012.0	0	0.000	0.0
20101015 19:10	6.6	6.6	6.6	84	4.1	0	2	338	0.0	1012.1	0	0.000	0.0
20101015 19:15	6.6	6.6	6.6	83	3.9	0	2	338	0.0	1012.0	0	0.000	0.0
20101015 19:20	6.6	6.6	6.6	83	3.9	0	3	338	0.0	1012.1	0	0.000	0.0
20101015 19:25	6.6	6.6	6.6	83	3.9	2	3	338	0.0	1012.2	0	0.000	0.0
20101015 19:30	6.6	6.6	6.6	84	4.0	0	2	338	0.0	1012.2	0	0.000	0.0
20101015 19:35	6.6	6.6	6.6	84	4.0	0	3	338	0.0	1012.1	0	0.000	0.0
20101015 19:40	6.6	6.6	6.6	84	4.0	0	0	-100000	0.0	1012.1	0	0.000	0.0
20101015 19:45	6.6	6.6	6.6	84	4.0	0	0	-100000	0.0	1012.1	0	0.000	0.0
20101015 19:50	6.6	6.6	6.6	85	4.2	0	5	338	0.0	1012.2	0	0.000	0.0
20101015 19:55	6.6	6.6	6.6	85	4.2	2	5	338	0.0	1012.1	0	0.000	0.0
20101015 20:00	6.5	6.5	6.5	85	4.2	0	0	-100000	0.0	1012.1	0	0.000	0.0
20101015 20:05	6.5	6.5	6.5	85	4.2	0	0	-100000	0.0	1012.1	0	0.000	0.0
20101015 20:10	6.4	6.4	6.4	85	4.1	0	3	338	0.0	1012.1	0	0.000	0.0
20101015 20:15	6.4	6.4	6.4	85	4.1	2	5	338	0.0	1012.1	0	0.000	0.0
20101015 20:20	6.4	6.4	6.4	85	4.1	0	2	338	0.0	1012.1	0	0.000	0.0
20101015 20:25	6.4	6.4	6.4	85	4.1	0	2	338	0.0	1012.0	0	0.000	0.0
20101015 20:30	6.4	6.4	6.4	85	4.1	0	3	338	0.0	1012.0	0	0.000	0.0
20101015 20:35	6.4	6.4	6.4	86	4.3	0	0	-100000	0.0	1012.0	0	0.000	0.0
20101015 20:40	6.4	6.4	6.4	86	4.3	0	3	338	0.0	1012.0	0	0.000	0.0
20101015 20:45	6.4	6.4	6.4	86	4.2	0	2	338	0.0	1012.0	0	0.000	0.0
20101015 20:50	6.4	6.4	6.4	86	4.2	2	5	338	0.0	1011.9	0	0.000	0.0
20101015 20:55	6.4	6.4	6.4	86	4.2	2	5	338	0.0	1011.8	0	0.000	0.0
20101015 21:00	6.4	6.4	6.4	86	4.2	2	6	338	0.0	1011.8	0	0.000	0.0
20101015 21:05	6.4	6.4	6.4	86	4.2	2	5	338	0.0	1011.7	0	0.000	0.0
20101015 21:10	6.3	6.3	6.3	85	4.0	2	5	338	0.0	1011.9	0	0.000	0.0
20101015 21:15	6.3	6.3	6.3	85	4.0	5	8	292	0.0	1011.9	0	0.000	0.0
20101015 21:20	6.3	6.3	6.3	84	3.8	3	6	292	0.0	1011.9	0	0.000	0.0
20101015 21:25	6.3	6.3	6.3	84	3.8	2	5	292	0.0	1011.9	0	0.000	0.0
20101015 21:30	6.3	6.3	6.3	83	3.7	0	3	292	0.0	1011.8	0	0.000	0.0
20101015 21:35	6.3	6.3	6.3	84	3.8	3	6	292	0.0	1011.8	0	0.000	0.0
20101015 21:40	6.3	6.3	6.3	84	3.8	3	6	292	0.0	1011.8	0	0.000	0.0
20101015 21:45	6.3	6.3	6.3	85	4.0	2	5	292	0.0	1011.8	0	0.000	0.0
20101015 21:50	6.3	6.3	6.3	85	4.0	3	6	292	0.0	1011.8	0	0.000	0.0
20101015 21:55	6.3	6.3	6.3	85	4.0	2	5	292	0.0	1011.8	0	0.000	0.0
20101015 22:00	6.3	6.3	6.3	85	4.0	2	6	292	0.0	1011.9	0	0.000	0.0
20101015 22:05	6.3	6.3	6.3	84	3.8	0	3	292	0.0	1011.9	0	0.000	0.0
20101015 22:10	6.3	6.3	6.3	84	3.8	0	2	292	0.0	1011.9	0	0.000	0.0
20101015 22:15	6.3	6.3	6.3	84	3.8	0	0	-100000	0.0	1011.9	0	0.000	0.0
20101015 22:20	6.3	6.3	6.3	85	3.9	0	0	-100000	0.0	1011.9	0	0.000	0.0
20101015 22:25	6.3	6.3	6.3	85	3.9	0	2	292	0.0	1011.9	0	0.000	0.0
20101015 22:30	6.2	6.2	6.2	85	3.9	0	0	-100000	0.0	1011.9	0	0.000	0.0
20101015 22:35	6.2	6.2	6.2	85	3.9	0	0	-100000	0.0	1011.9	0	0.000	0.0
20101015 22:40	6.2	6.2	6.2	84	3.7	0	0	-100000	0.0	1011.9	0	0.000	0.0
20101015 22:45	6.2	6.2	6.2	85	3.9	0	2	292	0.0	1011.9	0	0.000	0.0
20101015 22:50	6.3	6.3	6.3	85	3.9	0	3	292	0.0	1011.9	0	0.000	0.0
20101015 22:55	6.2	6.2	6.2	85	3.9	0	2	292	0.0	1011.9	0	0.000	0.0
20101015 23:00	6.2	6.2	6.2	85	3.9	0	2	292	0.0	1011.9	0	0.000	0.0
20101015 23:05	6.2	6.2	6.2	85	3.9	0	0	-100000	0.0	1011.9	0	0.000	0.0
20101015 23:10	6.2	6.2	6.2	85	3.8	0	0	-100000	0.0	1011.9	0	0.000	0.0
20101015 23:15	6.2	6.2	6.2	85	3.8	0	2	292	0.0	1011.9	0	0.000	0.0
20101015 23:20	6.2	6.2	6.2	85	3.8	0	0	-100000	0.0	1011.9	0	0.000	0.0
20101015 23:25	6.2	6.2	6.2	85	3.8	0	0	-100000	0.0	1011.8	0	0.000	0.0
20101015 23:30	6.1	6.1	6.1	85	3.8	0	0	-100000	0.0	1011.8	0	0.000	0.0
20101015 23:35	6.1	6.1	6.1	85	3.8	0	2	292	0.0	1011.8	0	0.000	0.0
20101015 23:40	6.1	6.1	6.1	84	3.6	0	0	-100000	0.0	1011.6	0	0.000	0.0
20101015 23:45	6.1	6.1	6.1	84	3.6	0	0	-100000	0.0	1011.6	0	0.000	0.0
20101015 23:50	6.1	6.1	6.1	84	3.6	0	0	-100000	0.0	1011.6	0	0.000	0.0
20101015 23:55	6.1	6.1	6.1	85	3.7	0	0	-100000	0.0	1011.5	0	0.000	0.0



Please note the license to use and transfer of this data:
http://creativecommons.org/licenses/by-nc-sa/3.0/deed.en

Bitte beachten sie die Lizenz zur Verwertung und Weitergabe der Daten:
http://creativecommons.org/licenses/by-nc-sa/3.0/deed.de

zurück zur Übersicht der Archivdaten (Monats und Tagesdaten)

Cookies helfen bei der Bereitstellung von Inhalten. Durch die Nutzung dieser Seiten erklärst du dich damit einverstanden, dass Cookies auf deinem Rechner gespeichert werden. Weitere Information